createdAt,value
2022-11-13T00:00:00.537Z,91
2022-11-13T00:01:00.687Z,91
2022-11-13T00:02:00.842Z,91
2022-11-13T00:03:01.028Z,90.9
2022-11-13T00:04:01.145Z,90.8
2022-11-13T00:05:00.285Z,90.8
2022-11-13T00:06:00.419Z,90.8
2022-11-13T00:07:00.608Z,90.9
2022-11-13T00:08:00.709Z,90.8
2022-11-13T00:09:00.884Z,90.8
2022-11-13T00:10:01.007Z,90.8
2022-11-13T00:11:01.182Z,90.7
2022-11-13T00:12:00.289Z,90.7
2022-11-13T00:13:00.448Z,90.9
2022-11-13T00:14:00.604Z,91
2022-11-13T00:15:00.733Z,91.2
2022-11-13T00:16:00.925Z,91.2
2022-11-13T00:17:01.026Z,91.1
2022-11-13T00:18:01.181Z,91.1
2022-11-13T00:19:00.320Z,90.9
2022-11-13T00:20:00.473Z,91.1
2022-11-13T00:21:00.627Z,91.3
2022-11-13T00:22:00.763Z,91.1
2022-11-13T00:23:00.901Z,91.2
2022-11-13T00:24:01.086Z,91.3
2022-11-13T00:25:01.201Z,91.4
2022-11-13T00:26:00.345Z,91.2
2022-11-13T00:27:00.505Z,91.1
2022-11-13T00:28:00.640Z,91.2
2022-11-13T00:29:00.775Z,91.3
2022-11-13T00:30:00.921Z,91.3
2022-11-13T00:31:01.082Z,91.2
2022-11-13T00:32:01.235Z,91.3
2022-11-13T00:33:00.368Z,91.4
2022-11-13T00:34:40.858Z,91.5
2022-11-13T00:35:00.663Z,91.5
2022-11-13T00:36:00.797Z,91.4
2022-11-13T00:37:00.977Z,91.4
2022-11-13T00:38:01.101Z,91.5
2022-11-13T00:39:01.244Z,91.5
2022-11-13T00:40:00.400Z,91.5
2022-11-13T00:41:00.548Z,91.5
2022-11-13T00:42:00.700Z,91.5
2022-11-13T00:43:00.847Z,91.5
2022-11-13T00:44:00.994Z,91.6
2022-11-13T00:45:01.127Z,91.5
2022-11-13T00:46:00.291Z,91.4
2022-11-13T00:47:00.431Z,91.3
2022-11-13T00:48:00.611Z,91.3
2022-11-13T00:49:00.732Z,91.4
2022-11-13T00:50:00.876Z,91.4
2022-11-13T00:51:01.023Z,91.4
2022-11-13T00:52:01.168Z,91.4
2022-11-13T00:53:00.339Z,91.3
2022-11-13T00:54:00.484Z,91.4
2022-11-13T00:55:00.618Z,91.3
2022-11-13T00:56:00.784Z,91.1
2022-11-13T00:57:00.962Z,91.1
2022-11-13T00:58:01.077Z,91.1
2022-11-13T00:59:01.214Z,91
2022-11-13T01:00:00.357Z,91
2022-11-13T01:01:00.490Z,90.9
2022-11-13T01:02:00.689Z,91
2022-11-13T01:03:00.797Z,91
2022-11-13T01:04:00.917Z,91
2022-11-13T01:05:01.072Z,90.9
2022-11-13T01:06:01.215Z,91
2022-11-13T01:07:00.403Z,91.1
2022-11-13T01:08:00.519Z,91
2022-11-13T01:09:00.682Z,90.9
2022-11-13T01:10:00.819Z,90.9
2022-11-13T01:11:00.958Z,90.9
2022-11-13T01:12:01.099Z,90.8
2022-11-13T01:13:01.260Z,90.8
2022-11-13T01:14:00.416Z,90.7
2022-11-13T01:15:00.547Z,90.7
2022-11-13T01:16:00.688Z,90.6
2022-11-13T01:17:00.872Z,90.7
2022-11-13T01:18:00.985Z,90.7
2022-11-13T01:19:01.128Z,90.8
2022-11-13T01:20:00.274Z,90.9
2022-11-13T01:21:00.420Z,91
2022-11-13T01:22:00.579Z,91
2022-11-13T01:23:00.720Z,90.9
2022-11-13T01:24:00.861Z,90.8
2022-11-13T01:25:01.046Z,90.7
2022-11-13T01:26:01.181Z,90.7
2022-11-13T01:27:00.316Z,90.7
2022-11-13T01:28:00.464Z,90.6
2022-11-13T01:29:00.610Z,90.6
2022-11-13T01:30:00.746Z,90.8
2022-11-13T01:31:00.910Z,90.9
2022-11-13T01:32:01.044Z,91.1
2022-11-13T01:33:01.204Z,91.2
2022-11-13T01:34:00.347Z,91.2
2022-11-13T01:35:00.498Z,91.2
2022-11-13T01:36:00.636Z,91.2
2022-11-13T01:37:00.778Z,91.1
2022-11-13T01:38:00.935Z,91.1
2022-11-13T01:39:01.079Z,91.1
2022-11-13T01:40:01.243Z,91
2022-11-13T01:41:00.364Z,91
2022-11-13T01:42:00.546Z,90.9
2022-11-13T01:43:00.683Z,90.9
2022-11-13T01:44:00.820Z,90.8
2022-11-13T01:45:00.985Z,90.7
2022-11-13T01:46:01.107Z,90.6
2022-11-13T01:47:01.276Z,90.6
2022-11-13T01:48:00.406Z,90.6
2022-11-13T01:49:00.559Z,90.6
2022-11-13T01:50:00.695Z,90.6
2022-11-13T01:51:00.844Z,90.6
2022-11-13T01:52:00.993Z,90.6
2022-11-13T01:53:01.158Z,90.5
2022-11-13T01:54:00.283Z,90.6
2022-11-13T01:55:00.425Z,90.8
2022-11-13T01:56:00.583Z,90.9
2022-11-13T01:57:00.715Z,90.8
2022-11-13T01:58:00.877Z,90.7
2022-11-13T01:59:01.040Z,90.6
2022-11-13T02:00:01.158Z,90.6
2022-11-13T02:01:00.302Z,90.7
2022-11-13T02:02:00.497Z,90.7
2022-11-13T02:03:00.604Z,90.6
2022-11-13T02:04:00.772Z,90.6
2022-11-13T02:05:00.884Z,90.6
2022-11-13T02:06:01.033Z,90.5
2022-11-13T02:07:01.280Z,90.5
2022-11-13T02:08:00.320Z,90.5
2022-11-13T02:09:00.480Z,90.5
2022-11-13T02:10:00.619Z,90.6
2022-11-13T02:11:00.751Z,90.6
2022-11-13T02:12:00.912Z,90.7
2022-11-13T02:13:01.051Z,90.8
2022-11-13T02:14:01.192Z,90.9
2022-11-13T02:15:00.329Z,91
2022-11-13T02:16:00.502Z,91
2022-11-13T02:17:00.642Z,90.9
2022-11-13T02:18:00.784Z,91
2022-11-13T02:19:00.968Z,91.2
2022-11-13T02:20:01.078Z,91.3
2022-11-13T02:21:01.230Z,91.3
2022-11-13T02:22:00.377Z,91.2
2022-11-13T02:23:00.531Z,91.2
2022-11-13T02:24:00.698Z,91.2
2022-11-13T02:25:00.823Z,91.3
2022-11-13T02:26:00.974Z,91.4
2022-11-13T02:27:01.121Z,91.5
2022-11-13T02:29:00.373Z,91.3
2022-11-13T02:30:00.527Z,91.4
2022-11-13T02:31:00.648Z,91.4
2022-11-13T02:32:00.797Z,91.4
2022-11-13T02:33:00.957Z,91.4
2022-11-13T02:34:01.107Z,91.3
2022-11-13T02:35:01.268Z,91.2
2022-11-13T02:36:00.390Z,91.1
2022-11-13T02:37:00.535Z,91
2022-11-13T02:38:00.673Z,91
2022-11-13T02:39:00.826Z,91.1
2022-11-13T02:40:01.007Z,91.1
2022-11-13T02:41:01.131Z,91.1
2022-11-13T02:42:00.272Z,91.1
2022-11-13T02:43:00.424Z,91.2
2022-11-13T02:44:00.568Z,91.2
2022-11-13T02:45:00.741Z,91.2
2022-11-13T02:46:00.866Z,91.2
2022-11-13T02:47:01.009Z,91.2
2022-11-13T02:48:01.215Z,91.3
2022-11-13T02:49:00.296Z,91.4
2022-11-13T02:50:00.460Z,91.4
2022-11-13T02:51:00.594Z,91.4
2022-11-13T02:52:00.735Z,91.4
2022-11-13T02:53:00.888Z,91.4
2022-11-13T02:54:01.025Z,91.4
2022-11-13T02:55:01.185Z,91.4
2022-11-13T02:56:00.322Z,91.5
2022-11-13T02:57:00.487Z,91.5
2022-11-13T02:58:00.616Z,91.5
2022-11-13T02:59:00.752Z,91.5
2022-11-13T03:00:00.915Z,91.4
2022-11-13T03:01:01.064Z,91.3
2022-11-13T03:02:01.294Z,91.3
2022-11-13T03:03:00.375Z,91.3
2022-11-13T03:04:00.498Z,91.4
2022-11-13T03:05:13.904Z,91.5
2022-11-13T03:06:00.814Z,91.5
2022-11-13T03:07:01.083Z,91.5
2022-11-13T03:08:01.108Z,91.4
2022-11-13T03:09:01.247Z,91.4
2022-11-13T03:10:00.401Z,91.5
2022-11-13T03:11:00.542Z,91.5
2022-11-13T03:12:00.729Z,91.6
2022-11-13T03:13:00.847Z,91.6
2022-11-13T03:14:00.986Z,91.6
2022-11-13T03:15:01.140Z,91.6
2022-11-13T03:16:00.282Z,91.6
2022-11-13T03:17:00.447Z,91.5
2022-11-13T03:18:00.670Z,91.4
2022-11-13T03:19:00.734Z,91.3
2022-11-13T03:20:00.879Z,91.3
2022-11-13T03:21:01.030Z,91.3
2022-11-13T03:22:01.200Z,91.2
2022-11-13T03:23:00.319Z,91.3
2022-11-13T03:24:00.479Z,91.4
2022-11-13T03:25:00.613Z,91.4
2022-11-13T03:26:00.765Z,91.3
2022-11-13T03:27:00.932Z,91.2
2022-11-13T03:28:01.067Z,91.2
2022-11-13T03:29:01.206Z,91.1
2022-11-13T03:30:00.359Z,91.1
2022-11-13T03:31:00.500Z,91
2022-11-13T03:32:00.670Z,91
2022-11-13T03:33:00.820Z,91
2022-11-13T03:34:00.971Z,91
2022-11-13T03:35:01.115Z,91
2022-11-13T03:36:00.265Z,91
2022-11-13T03:37:00.426Z,91
2022-11-13T03:38:00.583Z,91
2022-11-13T03:39:00.705Z,90.9
2022-11-13T03:40:00.848Z,90.9
2022-11-13T03:41:00.996Z,90.7
2022-11-13T03:42:01.153Z,91
2022-11-13T03:43:00.326Z,91.2
2022-11-13T03:44:00.450Z,91.3
2022-11-13T03:45:00.602Z,91.4
2022-11-13T03:46:00.739Z,91.5
2022-11-13T03:47:00.905Z,91.6
2022-11-13T03:48:01.050Z,91.6
2022-11-13T03:49:01.181Z,91.6
2022-11-13T03:50:00.318Z,91.7
2022-11-13T03:51:00.464Z,91.7
2022-11-13T03:52:00.612Z,91.7
2022-11-13T03:53:00.767Z,91.6
2022-11-13T03:54:00.894Z,91.6
2022-11-13T03:55:01.038Z,91.7
2022-11-13T03:56:01.196Z,91.7
2022-11-13T03:57:00.328Z,91.8
2022-11-13T03:58:00.511Z,91.7
2022-11-13T03:59:00.623Z,91.6
2022-11-13T04:00:00.780Z,91.6
2022-11-13T04:01:00.915Z,91.8
2022-11-13T04:02:01.127Z,91.8
2022-11-13T04:03:01.227Z,91.8
2022-11-13T04:04:00.357Z,91.8
2022-11-13T04:05:00.505Z,91.8
2022-11-13T04:06:00.650Z,91.8
2022-11-13T04:07:00.832Z,91.8
2022-11-13T04:08:00.960Z,91.9
2022-11-13T04:09:01.094Z,91.7
2022-11-13T04:10:01.243Z,91.7
2022-11-13T04:11:00.371Z,91.8
2022-11-13T04:12:00.527Z,91.8
2022-11-13T04:13:00.781Z,91.8
2022-11-13T04:14:00.818Z,91.8
2022-11-13T04:15:00.974Z,91.8
2022-11-13T04:16:01.135Z,91.8
2022-11-13T04:17:00.268Z,91.8
2022-11-13T04:18:00.432Z,91.9
2022-11-13T04:19:00.569Z,91.8
2022-11-13T04:20:00.724Z,91.9
2022-11-13T04:21:00.887Z,91.9
2022-11-13T04:22:01.021Z,91.8
2022-11-13T04:23:01.180Z,91.7
2022-11-13T04:24:00.312Z,91.6
2022-11-13T04:25:00.451Z,91.5
2022-11-13T04:26:00.609Z,91.6
2022-11-13T04:27:00.754Z,91.7
2022-11-13T04:28:00.929Z,91.7
2022-11-13T04:29:01.052Z,91.7
2022-11-13T04:30:01.197Z,91.5
2022-11-13T04:31:00.349Z,91.6
2022-11-13T04:32:00.490Z,91.7
2022-11-13T04:33:00.670Z,91.7
2022-11-13T04:34:00.786Z,91.7
2022-11-13T04:35:00.942Z,91.8
2022-11-13T04:36:01.093Z,91.8
2022-11-13T04:37:01.244Z,91.8
2022-11-13T04:38:00.401Z,91.8
2022-11-13T04:39:00.535Z,91.9
2022-11-13T04:40:00.677Z,91.9
2022-11-13T04:41:00.824Z,91.9
2022-11-13T04:42:00.978Z,91.8
2022-11-13T04:43:01.137Z,91.7
2022-11-13T04:44:00.271Z,91.8
2022-11-13T04:45:00.413Z,91.8
2022-11-13T04:46:00.577Z,91.9
2022-11-13T04:47:00.725Z,91.9
2022-11-13T04:48:00.901Z,91.9
2022-11-13T04:49:01.007Z,92
2022-11-13T04:50:01.151Z,91.9
2022-11-13T04:51:00.305Z,91.9
2022-11-13T04:52:00.455Z,91.9
2022-11-13T04:53:00.639Z,91.9
2022-11-13T04:54:00.765Z,91.9
2022-11-13T04:55:00.908Z,91.9
2022-11-13T04:56:01.062Z,91.8
2022-11-13T04:57:01.205Z,91.7
2022-11-13T04:58:00.363Z,91.7
2022-11-13T04:59:00.497Z,91.8
2022-11-13T05:00:00.648Z,91.9
2022-11-13T05:01:00.787Z,91.9
2022-11-13T05:02:00.985Z,91.9
2022-11-13T05:03:01.094Z,91.8
2022-11-13T05:04:01.221Z,91.8
2022-11-13T05:05:04.583Z,91.8
2022-11-13T05:06:00.542Z,91.9
2022-11-13T05:07:00.718Z,91.9
2022-11-13T05:08:00.839Z,91.9
2022-11-13T05:09:00.977Z,91.9
2022-11-13T05:10:01.120Z,91.8
2022-11-13T05:11:00.266Z,91.8
2022-11-13T05:12:00.419Z,91.9
2022-11-13T05:13:00.590Z,91.8
2022-11-13T05:14:03.421Z,91.7
2022-11-13T05:15:00.856Z,91.6
2022-11-13T05:16:00.999Z,91.6
2022-11-13T05:17:01.145Z,91.6
2022-11-13T05:18:00.309Z,91.6
2022-11-13T05:19:00.450Z,91.6
2022-11-13T05:20:00.607Z,91.6
2022-11-13T05:21:00.746Z,91.7
2022-11-13T05:22:00.890Z,91.8
2022-11-13T05:23:01.064Z,91.9
2022-11-13T05:24:01.196Z,91.9
2022-11-13T05:25:00.351Z,91.9
2022-11-13T05:26:00.495Z,92
2022-11-13T05:27:00.664Z,92
2022-11-13T05:28:00.829Z,92
2022-11-13T05:29:00.950Z,92
2022-11-13T05:30:01.097Z,92
2022-11-13T05:31:01.243Z,92
2022-11-13T05:32:00.386Z,91.8
2022-11-13T05:33:00.558Z,91.9
2022-11-13T05:34:05.522Z,91.9
2022-11-13T05:35:00.833Z,92
2022-11-13T05:36:00.982Z,92
2022-11-13T05:37:01.131Z,91.9
2022-11-13T05:38:00.316Z,91.8
2022-11-13T05:39:00.420Z,92
2022-11-13T05:40:00.571Z,92
2022-11-13T05:41:00.726Z,92
2022-11-13T05:42:00.874Z,92
2022-11-13T05:43:01.056Z,91.8
2022-11-13T05:44:01.175Z,91.8
2022-11-13T05:45:00.342Z,91.9
2022-11-13T05:46:00.471Z,91.9
2022-11-13T05:47:00.617Z,91.9
2022-11-13T05:48:00.802Z,92
2022-11-13T05:49:00.934Z,92
2022-11-13T05:50:01.074Z,92
2022-11-13T05:51:01.227Z,92
2022-11-13T05:52:00.375Z,92
2022-11-13T05:53:00.529Z,91.9
2022-11-13T05:54:00.662Z,91.8
2022-11-13T05:55:00.813Z,91.9
2022-11-13T05:56:00.962Z,91.9
2022-11-13T05:57:01.124Z,91.7
2022-11-13T05:58:00.295Z,91.7
2022-11-13T05:59:00.413Z,91.6
2022-11-13T06:00:00.568Z,91.6
2022-11-13T06:01:00.711Z,91.6
2022-11-13T06:02:00.923Z,91.5
2022-11-13T06:03:01.013Z,91.5
2022-11-13T06:04:01.188Z,91.4
2022-11-13T06:05:00.295Z,91.4
2022-11-13T06:06:00.459Z,91.4
2022-11-13T06:07:00.698Z,91.4
2022-11-13T06:08:00.760Z,91.4
2022-11-13T06:09:00.935Z,91.4
2022-11-13T06:10:01.055Z,91.3
2022-11-13T06:11:01.213Z,91.3
2022-11-13T06:12:00.373Z,91.3
2022-11-13T06:13:00.502Z,91.3
2022-11-13T06:14:00.693Z,91.2
2022-11-13T06:15:00.798Z,91.2
2022-11-13T06:16:00.942Z,91
2022-11-13T06:17:01.113Z,90.9
2022-11-13T06:18:00.259Z,90.9
2022-11-13T06:19:00.433Z,91
2022-11-13T06:20:00.562Z,91.3
2022-11-13T06:21:00.714Z,91.5
2022-11-13T06:22:00.864Z,91.4
2022-11-13T06:23:01.006Z,91.4
2022-11-13T06:24:01.176Z,91.5
2022-11-13T06:25:00.297Z,91.6
2022-11-13T06:26:00.450Z,91.6
2022-11-13T06:27:00.604Z,91.6
2022-11-13T06:28:00.752Z,91.7
2022-11-13T06:29:00.914Z,91.7
2022-11-13T06:30:01.029Z,91.7
2022-11-13T06:31:01.187Z,91.8
2022-11-13T06:32:00.338Z,91.9
2022-11-13T06:33:00.473Z,91.9
2022-11-13T06:34:00.637Z,91.8
2022-11-13T06:35:00.760Z,91.8
2022-11-13T06:36:00.918Z,91.9
2022-11-13T06:37:01.907Z,91.9
2022-11-13T06:38:01.209Z,91.9
2022-11-13T06:39:00.509Z,91.8
2022-11-13T06:40:00.502Z,91.9
2022-11-13T06:41:00.650Z,91.8
2022-11-13T06:42:00.787Z,91.9
2022-11-13T06:43:00.939Z,91.9
2022-11-13T06:44:03.091Z,92
2022-11-13T06:45:01.240Z,92
2022-11-13T06:46:00.383Z,92
2022-11-13T06:47:00.536Z,92.1
2022-11-13T06:48:00.749Z,92.1
2022-11-13T06:49:00.868Z,92.1
2022-11-13T06:50:00.973Z,92
2022-11-13T06:51:01.118Z,91.9
2022-11-13T06:52:00.272Z,91.9
2022-11-13T06:53:00.413Z,92
2022-11-13T06:54:00.597Z,92
2022-11-13T06:55:00.710Z,91.9
2022-11-13T06:56:00.858Z,91.9
2022-11-13T06:57:00.992Z,92
2022-11-13T06:58:01.144Z,92
2022-11-13T06:59:00.322Z,92
2022-11-13T07:00:00.453Z,92
2022-11-13T07:01:00.653Z,91.9
2022-11-13T07:02:00.746Z,91.7
2022-11-13T07:03:00.903Z,91.7
2022-11-13T07:04:01.076Z,91.7
2022-11-13T07:05:01.237Z,91.7
2022-11-13T07:06:00.352Z,91.6
2022-11-13T07:07:00.593Z,91.6
2022-11-13T07:08:00.645Z,91.8
2022-11-13T07:09:00.796Z,92
2022-11-13T07:10:00.973Z,92
2022-11-13T07:11:01.083Z,92
2022-11-13T07:12:01.239Z,92
2022-11-13T07:13:00.380Z,91.9
2022-11-13T07:14:00.529Z,91.9
2022-11-13T07:15:00.701Z,91.9
2022-11-13T07:16:05.875Z,91.9
2022-11-13T07:17:10.204Z,91.8
2022-11-13T07:18:01.124Z,91.8
2022-11-13T07:19:00.287Z,91.7
2022-11-13T07:20:00.408Z,91.7
2022-11-13T07:21:00.558Z,91.8
2022-11-13T07:22:00.701Z,91.9
2022-11-13T07:23:00.894Z,91.8
2022-11-13T07:24:01.011Z,91.7
2022-11-13T07:25:01.162Z,91.6
2022-11-13T07:26:00.307Z,91.6
2022-11-13T07:27:00.448Z,91.6
2022-11-13T07:28:00.621Z,91.6
2022-11-13T07:29:00.751Z,91.6
2022-11-13T07:30:03.505Z,91.6
2022-11-13T07:31:01.034Z,91.6
2022-11-13T07:32:01.176Z,91.7
2022-11-13T07:33:00.332Z,91.6
2022-11-13T07:34:00.461Z,91.6
2022-11-13T07:35:00.610Z,91.6
2022-11-13T07:36:00.768Z,91.6
2022-11-13T07:37:00.909Z,91.6
2022-11-13T07:38:01.079Z,91.6
2022-11-13T07:39:01.213Z,91.6
2022-11-13T07:40:00.350Z,91.7
2022-11-13T07:41:00.498Z,91.7
2022-11-13T07:42:00.642Z,91.8
2022-11-13T07:43:00.804Z,91.8
2022-11-13T07:44:03.366Z,91.7
2022-11-13T07:45:01.079Z,91.7
2022-11-13T07:46:01.234Z,91.7
2022-11-13T07:47:00.362Z,91.7
2022-11-13T07:48:00.514Z,91.7
2022-11-13T07:49:00.695Z,91.6
2022-11-13T07:50:06.996Z,91.6
2022-11-13T07:51:00.968Z,91.7
2022-11-13T07:52:01.118Z,91.7
2022-11-13T07:53:00.257Z,91.7
2022-11-13T07:54:00.415Z,91.7
2022-11-13T07:55:00.555Z,91.7
2022-11-13T07:56:00.696Z,91.8
2022-11-13T07:57:00.840Z,91.9
2022-11-13T07:58:00.999Z,91.9
2022-11-13T07:59:01.170Z,92.1
2022-11-13T08:00:00.294Z,92.1
2022-11-13T08:01:00.478Z,92
2022-11-13T08:02:00.607Z,92
2022-11-13T08:03:00.746Z,91.9
2022-11-13T08:04:00.897Z,92
2022-11-13T08:05:01.052Z,92
2022-11-13T08:06:01.184Z,92
2022-11-13T08:07:00.427Z,91.9
2022-11-13T08:08:00.479Z,92
2022-11-13T08:09:00.625Z,91.9
2022-11-13T08:10:00.784Z,91.9
2022-11-13T08:11:00.943Z,91.9
2022-11-13T08:12:01.075Z,91.9
2022-11-13T08:13:01.222Z,91.9
2022-11-13T08:14:00.380Z,92
2022-11-13T08:15:00.512Z,92
2022-11-13T08:16:00.674Z,92
2022-11-13T08:17:00.815Z,91.9
2022-11-13T08:18:00.971Z,91.7
2022-11-13T08:19:01.147Z,91.7
2022-11-13T08:20:00.264Z,91.6
2022-11-13T08:21:00.405Z,91.5
2022-11-13T08:22:00.548Z,91.5
2022-11-13T08:23:00.707Z,91.4
2022-11-13T08:24:00.883Z,91.4
2022-11-13T08:25:00.997Z,91.3
2022-11-13T08:26:01.145Z,91.3
2022-11-13T08:27:00.286Z,91.3
2022-11-13T08:28:00.437Z,91.3
2022-11-13T08:29:00.589Z,91.3
2022-11-13T08:30:00.744Z,91.2
2022-11-13T08:31:00.882Z,91.1
2022-11-13T08:32:01.024Z,91
2022-11-13T08:33:01.182Z,90.9
2022-11-13T08:34:00.328Z,90.9
2022-11-13T08:35:00.510Z,90.9
2022-11-13T08:36:00.625Z,90.7
2022-11-13T08:37:00.777Z,90.5
2022-11-13T08:38:00.924Z,90.1
2022-11-13T08:39:01.077Z,89.9
2022-11-13T08:40:01.238Z,89.6
2022-11-13T08:41:04.401Z,89.5
2022-11-13T08:42:00.490Z,89.4
2022-11-13T08:43:00.643Z,89.5
2022-11-13T08:44:00.797Z,89.4
2022-11-13T08:45:00.962Z,89.4
2022-11-13T08:46:01.109Z,89.4
2022-11-13T08:47:01.242Z,89.5
2022-11-13T08:48:00.387Z,89.6
2022-11-13T08:49:00.527Z,89.6
2022-11-13T08:50:00.686Z,89.5
2022-11-13T08:51:00.812Z,89.1
2022-11-13T08:52:00.959Z,88.7
2022-11-13T08:53:01.138Z,88.5
2022-11-13T08:54:01.263Z,88.2
2022-11-13T08:55:00.430Z,88.1
2022-11-13T08:56:00.545Z,88
2022-11-13T08:57:05.647Z,88.2
2022-11-13T08:58:00.840Z,88.1
2022-11-13T08:59:00.979Z,88.1
2022-11-13T09:00:01.169Z,88.2
2022-11-13T09:01:00.278Z,88.3
2022-11-13T09:02:00.437Z,88.4
2022-11-13T09:03:00.564Z,88.5
2022-11-13T09:04:00.769Z,88.5
2022-11-13T09:05:00.883Z,88.4
2022-11-13T09:06:01.017Z,88.3
2022-11-13T09:07:01.292Z,88.2
2022-11-13T09:08:00.308Z,87.9
2022-11-13T09:09:00.468Z,87.7
2022-11-13T09:10:00.631Z,87.6
2022-11-13T09:11:00.760Z,87.4
2022-11-13T09:12:00.928Z,87.4
2022-11-13T09:13:01.097Z,87.3
2022-11-13T09:14:01.236Z,87.3
2022-11-13T09:15:00.378Z,87
2022-11-13T09:16:00.567Z,86.8
2022-11-13T09:17:00.704Z,86.3
2022-11-13T09:18:00.856Z,85.9
2022-11-13T09:19:00.971Z,85.8
2022-11-13T09:20:04.336Z,84.9
2022-11-13T09:21:00.269Z,84.5
2022-11-13T09:22:00.418Z,84.1
2022-11-13T09:23:00.591Z,84.1
2022-11-13T09:24:00.731Z,84.2
2022-11-13T09:25:00.876Z,84.5
2022-11-13T09:26:01.026Z,84.8
2022-11-13T09:27:01.178Z,85
2022-11-13T09:28:00.340Z,85.2
2022-11-13T09:29:00.470Z,85.1
2022-11-13T09:30:00.614Z,85.4
2022-11-13T09:31:00.770Z,85.5
2022-11-13T09:32:00.919Z,85.9
2022-11-13T09:33:01.088Z,86
2022-11-13T09:34:01.236Z,85.8
2022-11-13T09:35:00.378Z,85.8
2022-11-13T09:36:00.517Z,85.6
2022-11-13T09:37:00.663Z,85.4
2022-11-13T09:38:00.811Z,85.3
2022-11-13T09:39:00.980Z,85.4
2022-11-13T09:40:01.115Z,85.4
2022-11-13T09:41:00.270Z,85.4
2022-11-13T09:42:00.393Z,85.5
2022-11-13T09:43:00.549Z,85.5
2022-11-13T09:44:00.725Z,85.5
2022-11-13T09:45:00.844Z,84.8
2022-11-13T09:46:00.982Z,84.6
2022-11-13T09:47:01.120Z,83.7
2022-11-13T09:48:00.282Z,82.8
2022-11-13T09:49:00.443Z,82.9
2022-11-13T09:50:00.577Z,83.1
2022-11-13T09:51:00.724Z,83
2022-11-13T09:52:06.167Z,83.4
2022-11-13T09:53:01.011Z,83.5
2022-11-13T09:54:01.172Z,83.5
2022-11-13T09:55:00.322Z,83.7
2022-11-13T09:56:00.483Z,84
2022-11-13T09:57:00.608Z,83.4
2022-11-13T09:58:00.759Z,83.1
2022-11-13T09:59:00.944Z,82.7
2022-11-13T10:00:01.062Z,82.3
2022-11-13T10:01:01.303Z,82.3
2022-11-13T10:02:00.343Z,81.6
2022-11-13T10:03:00.478Z,81.3
2022-11-13T10:04:03.438Z,81.7
2022-11-13T10:05:00.777Z,82
2022-11-13T10:06:00.908Z,81.6
2022-11-13T10:07:01.127Z,81.4
2022-11-13T10:08:01.220Z,81.4
2022-11-13T10:09:00.371Z,81.5
2022-11-13T10:10:00.523Z,81.8
2022-11-13T10:11:00.655Z,81.8
2022-11-13T10:12:00.809Z,82.1
2022-11-13T10:13:00.955Z,81.9
2022-11-13T10:14:01.119Z,81.6
2022-11-13T10:15:01.274Z,82.1
2022-11-13T10:16:00.400Z,82.1
2022-11-13T10:17:00.557Z,81.8
2022-11-13T10:18:00.696Z,81.3
2022-11-13T10:19:00.854Z,81.3
2022-11-13T10:20:01.015Z,81.1
2022-11-13T10:21:04.467Z,81.1
2022-11-13T10:22:26.039Z,81.2
2022-11-13T10:23:00.478Z,81.2
2022-11-13T10:24:00.601Z,81
2022-11-13T10:25:00.744Z,80.9
2022-11-13T10:26:00.884Z,81.3
2022-11-13T10:27:01.036Z,81.8
2022-11-13T10:28:11.222Z,81.5
2022-11-13T10:29:00.370Z,80.9
2022-11-13T10:30:00.471Z,80.8
2022-11-13T10:31:00.627Z,80.3
2022-11-13T10:32:00.760Z,80.4
2022-11-13T10:33:00.947Z,79.7
2022-11-13T10:34:01.063Z,79.7
2022-11-13T10:35:01.210Z,79.9
2022-11-13T10:36:00.363Z,79.8
2022-11-13T10:37:00.508Z,79.8
2022-11-13T10:38:06.454Z,79.8
2022-11-13T10:39:00.789Z,79.7
2022-11-13T10:40:00.940Z,79.9
2022-11-13T10:41:01.092Z,80.2
2022-11-13T10:42:01.234Z,80.6
2022-11-13T10:43:00.405Z,80.3
2022-11-13T10:44:00.526Z,80.5
2022-11-13T10:45:00.674Z,79.8
2022-11-13T10:46:00.822Z,79.3
2022-11-13T10:47:01.081Z,79.6
2022-11-13T10:48:04.937Z,79.9
2022-11-13T10:49:00.267Z,80.1
2022-11-13T10:50:00.421Z,80.3
2022-11-13T10:51:00.568Z,80.4
2022-11-13T10:52:00.706Z,79.5
2022-11-13T10:53:00.887Z,79.7
2022-11-13T10:54:01.019Z,79.5
2022-11-13T10:55:01.168Z,78.7
2022-11-13T10:56:00.312Z,78.7
2022-11-13T10:57:00.507Z,78.7
2022-11-13T10:58:00.615Z,78.6
2022-11-13T10:59:00.766Z,79
2022-11-13T11:00:00.890Z,78.9
2022-11-13T11:01:01.116Z,79.1
2022-11-13T11:02:01.185Z,79.3
2022-11-13T11:03:00.335Z,79.2
2022-11-13T11:04:00.498Z,78.9
2022-11-13T11:05:00.620Z,79
2022-11-13T11:06:00.778Z,79.3
2022-11-13T11:07:21.017Z,79.3
2022-11-13T11:08:01.143Z,79.4
2022-11-13T11:09:01.226Z,79.2
2022-11-13T11:10:00.346Z,79.4
2022-11-13T11:11:00.497Z,79.4
2022-11-13T11:12:00.642Z,78.7
2022-11-13T11:13:00.788Z,78.7
2022-11-13T11:14:00.956Z,78.1
2022-11-13T11:15:01.121Z,77.6
2022-11-13T11:16:01.241Z,77.2
2022-11-13T11:17:00.385Z,77.6
2022-11-13T11:18:00.531Z,77.2
2022-11-13T11:19:00.701Z,76.6
2022-11-13T11:20:00.812Z,76.9
2022-11-13T11:21:00.975Z,76.7
2022-11-13T11:22:01.110Z,76.8
2022-11-13T11:24:00.389Z,76.9
2022-11-13T11:25:00.514Z,77
2022-11-13T11:26:00.649Z,77.2
2022-11-13T11:27:00.799Z,77
2022-11-13T11:28:00.948Z,77.2
2022-11-13T11:29:01.112Z,77.1
2022-11-13T11:30:01.237Z,77.2
2022-11-13T11:31:00.395Z,77
2022-11-13T11:32:00.534Z,77
2022-11-13T11:33:00.682Z,77.3
2022-11-13T11:34:00.862Z,77.2
2022-11-13T11:35:01.011Z,77.5
2022-11-13T11:36:01.139Z,77.3
2022-11-13T11:37:00.289Z,77.3
2022-11-13T11:38:00.430Z,77.9
2022-11-13T11:39:00.578Z,77.4
2022-11-13T11:40:00.741Z,76.9
2022-11-13T11:41:00.913Z,76.9
2022-11-13T11:42:01.032Z,76.7
2022-11-13T11:43:01.172Z,75.7
2022-11-13T11:44:00.316Z,76.1
2022-11-13T11:45:00.466Z,75.3
2022-11-13T11:46:00.634Z,75.2
2022-11-13T11:47:00.757Z,74.9
2022-11-13T11:48:00.901Z,75
2022-11-13T11:49:01.057Z,74.8
2022-11-13T11:50:01.204Z,74.6
2022-11-13T11:51:00.347Z,74.7
2022-11-13T11:52:00.503Z,74.6
2022-11-13T11:53:00.628Z,74.6
2022-11-13T11:54:00.781Z,74.7
2022-11-13T11:55:00.927Z,74.9
2022-11-13T11:56:01.075Z,74.9
2022-11-13T11:57:01.251Z,74.7
2022-11-13T11:58:00.396Z,74.5
2022-11-13T11:59:00.523Z,74.8
2022-11-13T12:00:00.675Z,74.7
2022-11-13T12:01:00.822Z,75.4
2022-11-13T12:02:00.985Z,75.4
2022-11-13T12:03:01.112Z,74.8
2022-11-13T12:04:00.253Z,75.1
2022-11-13T12:05:00.439Z,74.8
2022-11-13T12:06:00.548Z,75
2022-11-13T12:07:00.833Z,74.9
2022-11-13T12:08:00.865Z,75.4
2022-11-13T12:09:01.025Z,75
2022-11-13T12:10:01.154Z,75.3
2022-11-13T12:11:00.293Z,75.1
2022-11-13T12:12:00.458Z,75.4
2022-11-13T12:13:00.621Z,75
2022-11-13T12:14:00.742Z,74.8
2022-11-13T12:15:00.920Z,74.9
2022-11-13T12:16:01.051Z,74.9
2022-11-13T12:17:01.196Z,75.2
2022-11-13T12:18:00.334Z,75.2
2022-11-13T12:19:00.483Z,75.1
2022-11-13T12:20:00.674Z,74.7
2022-11-13T12:21:00.803Z,75.2
2022-11-13T12:22:00.943Z,74.8
2022-11-13T12:23:01.132Z,74.6
2022-11-13T12:24:01.243Z,74.5
2022-11-13T12:25:00.427Z,74.9
2022-11-13T12:26:00.552Z,74.9
2022-11-13T12:27:00.712Z,75
2022-11-13T12:28:00.850Z,75.1
2022-11-13T12:29:01.010Z,75.6
2022-11-13T12:30:01.164Z,75.7
2022-11-13T12:31:00.292Z,75.5
2022-11-13T12:32:00.447Z,75.4
2022-11-13T12:33:00.596Z,75.3
2022-11-13T12:34:01.705Z,75.6
2022-11-13T12:35:00.906Z,76.1
2022-11-13T12:36:01.031Z,76.8
2022-11-13T12:37:01.177Z,76
2022-11-13T12:38:00.333Z,75.7
2022-11-13T12:39:00.489Z,76
2022-11-13T12:40:00.647Z,75.2
2022-11-13T12:41:00.776Z,75.5
2022-11-13T12:42:00.912Z,75.3
2022-11-13T12:43:01.072Z,75.4
2022-11-13T12:44:01.216Z,75.5
2022-11-13T12:45:00.371Z,75.8
2022-11-13T12:46:00.503Z,75.6
2022-11-13T12:47:00.665Z,75.7
2022-11-13T12:48:00.805Z,75.6
2022-11-13T12:49:00.958Z,75.6
2022-11-13T12:50:01.113Z,75.3
2022-11-13T12:51:01.243Z,75.7
2022-11-13T12:52:00.379Z,75.7
2022-11-13T12:53:00.536Z,75.8
2022-11-13T12:54:00.683Z,76
2022-11-13T12:55:00.847Z,76
2022-11-13T12:56:00.992Z,76.4
2022-11-13T12:57:01.128Z,76.2
2022-11-13T12:58:00.281Z,75.7
2022-11-13T12:59:29.901Z,75.9
2022-11-13T13:00:00.606Z,76.1
2022-11-13T13:01:00.802Z,75.9
2022-11-13T13:02:00.872Z,75.7
2022-11-13T13:03:01.028Z,75.5
2022-11-13T13:04:01.186Z,75.5
2022-11-13T13:05:00.351Z,75.5
2022-11-13T13:06:00.465Z,75.8
2022-11-13T13:07:00.649Z,75.9
2022-11-13T13:08:04.717Z,76.2
2022-11-13T13:09:00.912Z,76.6
2022-11-13T13:10:01.067Z,76.6
2022-11-13T13:11:01.196Z,76.7
2022-11-13T13:12:00.337Z,76.8
2022-11-13T13:13:00.494Z,77.1
2022-11-13T13:14:00.630Z,77
2022-11-13T13:15:00.782Z,77
2022-11-13T13:16:00.934Z,77.1
2022-11-13T13:17:01.064Z,77.5
2022-11-13T13:18:01.237Z,77.4
2022-11-13T13:19:00.363Z,77.4
2022-11-13T13:20:00.507Z,77.6
2022-11-13T13:21:00.675Z,77.6
2022-11-13T13:22:00.809Z,77.3
2022-11-13T13:23:02.968Z,77.6
2022-11-13T13:24:01.108Z,77.2
2022-11-13T13:25:01.240Z,77.5
2022-11-13T13:26:00.392Z,77.3
2022-11-13T13:27:00.546Z,77.5